Nearby METAR Reports

 

KBED - Bedford, Massachusetts, USA
Distance from station: W 5mi, 9km
Updated: Fri, 20-Apr-2018 2:56am EDT
Overcast
Overcast
 Wind from WNW
Wind: WNW 9 mph , 15 km/h
Temperature: 36°F , 2°C
Wind Chill: 29°F , -2°C
Dew Point: 28°F , -2°C
Humidity: 75%
Barometer: 1011.2 hPa
Clouds: Overcast
Visibility: 10 miles , 16 km
Cloud details: Few Clouds 3300 ft
Mostly cloudy 4600 ft
Overcast 7000 ft
2018/04/20 06:56 KBED 200656Z AUTO 29008KT 10SM FEW033 BKN046 OVC070 02/M02 A2986 RMK AO2 SLP126 T00221022
KBOS - Boston, Massachusetts, USA
Distance from station: SE 11mi, 18km
Updated: Fri, 20-Apr-2018 2:54am EDT
Overcast
Overcast
 Wind from W
Wind: W 16 mph , 26 km/h
Temperature: 37°F , 3°C
Wind Chill: 28°F , -2°C
Dew Point: 28°F , -2°C
Humidity: 70%
Barometer: 1011.2 hPa
Clouds: Overcast
Visibility: 10 miles , 16 km
Cloud details: Few Clouds 3300 ft
Overcast 4400 ft
2018/04/20 06:54 KBOS 200654Z 28014KT 10SM FEW033 OVC044 03/M02 A2986 RMK AO2 SLP111 T00331017
 
KBVY - Beverly, Massachusetts, USA
Distance from station: ENE 17mi, 27km
Updated: Fri, 20-Apr-2018 2:53am EDT
Overcast
Overcast
 Wind from NW
Wind: NW 15 mph , 24 km/h, Gust: 22 mph , 35 km/h
Temperature: 37°F , 3°C
Wind Chill: 28°F , -2°C
Dew Point: 28°F , -2°C
Humidity: 70%
Barometer: 1010.5 hPa
Clouds: Overcast
Visibility: 10 miles , 16 km
Cloud details: Mostly cloudy 3200 ft
Overcast 4000 ft
2018/04/20 06:53 KBVY 200653Z AUTO 31013G19KT 10SM BKN032 OVC040 03/M02 A2984 RMK AO2 SLP102 T00331017
KMQE - East Milton, Massachusetts, USA
Distance from station: SSE 17mi, 28km
Updated: Fri, 20-Apr-2018 2:56am EDT

 Wind from WNW
Wind: WNW 15 mph , 24 km/h, Gust: 26 mph , 43 km/h
Temperature: 34°F , 1°C
Wind Chill: 24°F , -4°C
Dew Point: 28°F , -2°C
Humidity: 81%
Barometer: 1010.2 hPa
2018/04/20 06:56 KMQE 200656Z AUTO 30013G23KT 01/M02 A2983 RMK AO1 SLP116 T00111017
 
KLWM - Lawrence, Massachusetts, USA
Distance from station: N 18mi, 29km
Updated: Fri, 20-Apr-2018 2:54am EDT
Overcast
Overcast
 Wind from WNW
Wind: WNW 14 mph , 22 km/h, Gust: 18 mph , 30 km/h
Temperature: 39°F , 4°C
Wind Chill: 31°F , -1°C
Dew Point: 28°F , -2°C
Humidity: 65%
Barometer: 1011.5 hPa
Clouds: Overcast
Visibility: 10 miles , 16 km
Cloud details: Few Clouds 3400 ft
Mostly cloudy 5500 ft
Overcast 7000 ft
2018/04/20 06:54 KLWM 200654Z AUTO 29012G16KT 10SM FEW034 BKN055 OVC070 04/M02 A2987 RMK AO2 SLP114 T00391022
KOWD - Norwood, Massachusetts, USA
Distance from station: S 19mi, 31km
Updated: Fri, 20-Apr-2018 2:53am EDT
Overcast
Overcast
 Wind from WNW
Wind: WNW 12 mph , 19 km/h
Temperature: 39°F , 4°C
Wind Chill: 32°F , 0°C
Dew Point: 30°F , -1°C
Humidity: 70%
Barometer: 1011.5 hPa
Clouds: Overcast
Visibility: 10 miles , 16 km
Cloud details: Few Clouds 3000 ft
Overcast 4800 ft
2018/04/20 06:53 KOWD 200653Z AUTO 29010KT 10SM FEW030 OVC048 04/M01 A2987 RMK AO2 SLP115 T00391011
 
KASH - Nashua/Boire Fld, New Hampshire, USA
Distance from station: NW 28mi, 45km
Updated: Fri, 20-Apr-2018 2:56am EDT
Overcast
Overcast
 Wind from WNW
Wind: WNW 14 mph , 22 km/h
Temperature: 37°F , 3°C
Wind Chill: 28°F , -2°C
Dew Point: 28°F , -2°C
Humidity: 70%
Barometer: 1011.5 hPa
Clouds: Overcast
Visibility: 10 miles , 16 km
Cloud details: Partly cloudy 5500 ft
Overcast 7000 ft
2018/04/20 06:56 KASH 200656Z AUTO 30012KT 10SM SCT055 OVC070 03/M02 A2987 RMK AO2 SLP126 T00281022
KFIT - Fitchburg, Massachusetts, USA
Distance from station: WNW 29mi, 47km
Updated: Fri, 20-Apr-2018 2:52am EDT
Overcast
Overcast
 Wind from WNW
Wind: WNW 9 mph , 15 km/h
Temperature: 37°F , 3°C
Wind Chill: 30°F , -1°C
Dew Point: 30°F , -1°C
Humidity: 75%
Barometer: 1011.9 hPa
Clouds: Overcast
Visibility: 10 miles , 16 km
Cloud details: Overcast 8000 ft
2018/04/20 06:52 KFIT 200652Z AUTO 30008KT 10SM OVC080 03/M01 A2988 RMK AO2 SLP121 T00281011
 
KMHT - Manchester, New Hampshire, USA
Distance from station: NNW 35mi, 56km
Updated: Fri, 20-Apr-2018 2:53am EDT
Overcast
Overcast
 Wind from WNW
Wind: WNW 13 mph , 20 km/h
Temperature: 39°F , 4°C
Wind Chill: 31°F , -1°C
Dew Point: 27°F , -3°C
Humidity: 61%
Barometer: 1010.8 hPa
Clouds: Overcast
Visibility: 10 miles , 16 km
Cloud details: Overcast 5500 ft
2018/04/20 06:53 KMHT 200653Z 30011KT 10SM OVC055 04/M03 A2985 RMK AO2 SLP122 T00391028
KGHG - Marshfield, Massachusetts, USA
Distance from station: SE 37mi, 59km
Updated: Fri, 20-Apr-2018 2:55am EDT
Clear
Clear
 Wind from WNW
Wind: WNW 8 mph , 13 km/h
Temperature: 37°F , 3°C
Wind Chill: 31°F , -1°C
Dew Point: 30°F , -1°C
Humidity: 75%
Barometer: 1010.8 hPa
Clouds: Clear
Visibility: 10 miles , 16 km
2018/04/20 06:55 KGHG 200655Z AUTO 29007KT 260V320 10SM CLR 03/M01 A2985 RMK AO2
 
KORH - Worcester, Massachusetts, USA
Distance from station: WSW 37mi, 59km
Updated: Fri, 20-Apr-2018 2:54am EDT
Clear
Clear
 Wind from WNW
Wind: WNW 17 mph , 28 km/h
Temperature: 30°F , -1°C
Wind Chill: 18°F , -8°C
Dew Point: 25°F , -4°C
Humidity: 80%
Barometer: 1010.8 hPa
Clouds: Clear
Visibility: 10 miles , 16 km
2018/04/20 06:54 KORH 200654Z AUTO 29015KT 10SM CLR M01/M04 A2985 RMK AO2 SLP117 T10061039
KSFZ - Pawtucket, Rhode Island, USA
Distance from station: SSW 41mi, 65km
Updated: Fri, 20-Apr-2018 2:56am EDT
Clear
Clear
 
Temperature: 34°F , 1°C
Dew Point: 28°F , -2°C
Humidity: 81%
Barometer: 1011.9 hPa
Clouds: Clear
Visibility: 10 miles , 16 km
2018/04/20 06:56 KSFZ 200656Z AUTO 10SM CLR 01/M02 A2988 RMK AO2 RAB09E24 SLP066 P0000 T00111022 FZRANO $
 
KTAN - Taunton, Massachusetts, USA
Distance from station: SSE 41mi, 66km
Updated: Fri, 20-Apr-2018 2:52am EDT
Few Clouds
Few Clouds
 Wind from WNW
Wind: WNW 8 mph , 13 km/h, Gust: 17 mph , 28 km/h
Temperature: 37°F , 3°C
Wind Chill: 31°F , -1°C
Dew Point: 28°F , -2°C
Humidity: 70%
Barometer: 1011.5 hPa
Clouds: Few Clouds
Visibility: 10 miles , 16 km
Cloud details: Few Clouds 11000 ft
2018/04/20 06:52 KTAN 200652Z AUTO 29007G15KT 10SM FEW110 03/M02 A2987 RMK AO2 SLP115 T00331022 $
KPYM - Plymouth, Massachusetts, USA
Distance from station: SSE 44mi, 71km
Updated: Fri, 20-Apr-2018 2:52am EDT
Clear
Clear
 Wind from W
Wind: W 12 mph , 19 km/h
Temperature: 37°F , 3°C
Wind Chill: 29°F , -2°C
Dew Point: 30°F , -1°C
Humidity: 75%
Barometer: 1011.2 hPa
Clouds: Clear
Visibility: 10 miles , 16 km
2018/04/20 06:52 KPYM 200652Z AUTO 28010KT 10SM CLR 03/M01 A2986 RMK AO2 SLP111 T00331011
 
KPSM - Portsmouth/Pease, New Hampshire, USA
Distance from station: NNE 46mi, 74km
Updated: Fri, 20-Apr-2018 2:56am EDT
Overcast
Overcast
 Wind from W
Wind: W 12 mph , 19 km/h
Temperature: 37°F , 3°C
Wind Chill: 29°F , -2°C
Dew Point: 28°F , -2°C
Humidity: 70%
Barometer: 1009.5 hPa
Clouds: Overcast
Visibility: 10 miles , 16 km
Cloud details: Partly cloudy 3300 ft
Mostly cloudy 6000 ft
Overcast 9000 ft
2018/04/20 06:56 KPSM 200656Z 28010KT 10SM SCT033 BKN060 OVC090 03/M02 A2981 RMK AO2A SLP098 T00301019
KAFN - Jaffrey, New Hampshire, USA
Distance from station: WNW 47mi, 76km
Updated: Fri, 20-Apr-2018 2:52am EDT
Light snow, Overcast
Light snow, Overcast
 Wind from WSW
Wind: WSW 8 mph , 13 km/h
Temperature: 32°F , 0°C
Wind Chill: 25°F , -4°C
Dew Point: 28°F , -2°C
Humidity: 87%
Barometer: 1011.2 hPa
Summary: Light Snow
Clouds: Overcast
Visibility: 7 miles , 11 km
Cloud details: Partly cloudy 1600 ft
Mostly cloudy 2400 ft
Overcast 6000 ft
2018/04/20 06:52 KAFN 200652Z AUTO 25007KT 7SM -SN SCT016 BKN024 OVC060 00/M02 A2986 RMK AO2 SNB33 SLP124 P0000 T00001017